MST,Max TemperatureF,Mean TemperatureF,Min TemperatureF,Max Dew PointF,MeanDew PointF,Min DewpointF,Max Humidity, Mean Humidity, Min Humidity, Max Sea Level PressureIn, Mean Sea Level PressureIn, Min Sea Level PressureIn, Max VisibilityMiles, Mean VisibilityMiles, Min VisibilityMiles, Max Wind SpeedMPH, Mean Wind SpeedMPH, Max Gust SpeedMPH,PrecipitationIn, CloudCover, Events, WindDirDegrees
2013-4-1,59,44,29,29,19,9,85,51,17,29.94,29.91,29.86,10,10,10,32,11,38,0.00,0,,244
2013-4-2,55,40,24,27,21,16,69,48,26,29.99,29.93,29.89,10,10,10,21,5,33,0.00,2,,281
2013-4-3,62,43,23,27,19,12,85,50,14,30.14,30.07,30.01,10,10,10,22,6,29,0.00,0,,62
2013-4-4,64,45,25,24,18,14,68,42,15,30.17,30.09,29.96,10,10,10,18,5,24,0.00,0,,228
2013-4-5,64,48,32,27,22,8,63,38,12,29.95,29.90,29.83,10,10,10,29,9,38,0.00,0,,227
2013-4-6,65,50,34,28,25,23,70,45,20,29.96,29.89,29.84,10,10,10,25,7,30,0.00,0,,242
2013-4-7,64,47,30,26,24,18,72,46,19,29.92,29.81,29.65,10,10,10,28,7,33,0.00,0,,245
2013-4-8,47,40,33,34,29,23,82,66,49,29.62,29.45,29.26,10,6,1,45,17,63,0.04,7,Rain-Snow,241
2013-4-9,43,35,27,29,23,16,92,64,36,29.87,29.62,29.41,10,8,1,20,7,29,0.08,7,Snow,297
2013-4-10,50,39,27,25,15,3,78,47,15,30.04,29.96,29.85,10,10,10,25,11,37,T,2,,36
2013-4-11,60,43,26,24,19,16,68,45,21,29.98,29.86,29.78,10,10,10,22,5,37,0.00,2,,249
2013-4-12,61,43,25,29,22,17,69,45,21,29.88,29.84,29.81,10,10,10,24,3,31,T,4,,91
2013-4-13,65,46,27,26,20,17,81,49,16,29.88,29.76,29.61,10,10,10,32,14,41,0.00,0,,235
2013-4-14,62,52,42,28,25,22,45,34,23,29.66,29.61,29.56,10,10,10,32,19,40,0.00,0,,223
2013-4-15,58,49,40,31,29,26,60,47,33,29.61,29.59,29.56,10,10,10,37,25,51,0.00,0,,219
2013-4-16,53,41,28,33,25,15,70,49,28,29.78,29.63,29.55,10,10,10,43,22,56,0.00,3,,208
2013-4-17,44,35,26,22,12,-2,75,47,19,30.07,29.85,29.69,10,10,10,18,7,28,0.00,4,,305
2013-4-18,47,31,15,9,2,-4,67,40,12,30.28,30.16,30.07,10,10,10,24,9,31,0.00,0,,55
2013-4-19,61,37,13,9,4,-1,61,36,10,30.30,30.14,29.97,10,10,10,20,6,26,0.00,0,,247
2013-4-20,64,46,28,15,9,0,46,28,9,30.04,29.96,29.91,10,10,10,18,6,30,0.00,0,,277
2013-4-21,69,47,24,18,14,11,60,36,12,30.10,30.02,29.95,10,10,10,24,6,30,0.00,0,,236
2013-4-22,71,50,29,18,15,12,50,32,13,30.10,29.88,29.73,10,10,10,31,12,39,0.00,0,,233
2013-4-23,64,45,26,22,8,-16,52,28,4,30.00,29.86,29.71,10,10,10,16,6,21,0.00,1,,320
2013-4-24,65,44,22,20,13,2,48,32,15,30.12,29.96,29.90,10,10,10,23,6,28,0.00,0,,220
2013-4-25,60,44,28,28,19,10,63,39,15,30.07,29.94,29.89,10,10,10,26,8,35,0.00,1,,221
2013-4-26,64,47,29,27,20,12,78,46,14,30.16,30.11,30.06,10,10,10,17,4,30,0.00,3,,266
2013-4-27,70,50,29,18,11,7,52,31,9,30.19,30.10,30.03,10,10,10,15,4,24,0.00,0,,71
2013-4-28,74,51,27,19,11,7,46,27,8,30.05,29.97,29.88,10,10,10,15,3,21,0.00,0,,143
2013-4-29,77,54,31,22,15,12,58,34,9,29.90,29.81,29.69,10,10,10,25,7,32,0.00,0,,238
2013-4-30,74,57,40,21,14,8,31,20,9,29.75,29.71,29.67,10,10,10,36,16,47,0.00,0,,229